Tiempo atmosférico en la estación meteorológica de Antigua, Las Palmas (252 m.)



Fecha
DESCASC
Temp. máxima en grados centígrados (hora)
DESCASC
Temp. mínima en grados centígrados (hora)
DESCASC
Temp. media en grados centígrados
DESCASC
Racha de viento máxima en m/sg (hora)
DESCASC
Velocidad máxima media en intervalos de 10 minutos(hora)
DESCASC
Precipitaciones diarias en mm
DESCASC
Precipitaciones de 00:00 a 06:00 en mm
DESCASC
Precipitaciones de 06:00 a 12:00 en mm
DESCASC
Precipitaciones de 12:00 a 18:00 en mm
DESCASC
Precipitaciones de 18:00 a 24:00 en mm
DESCASC
18-01-2018 17.5 (14:40) 13 (05:30) 15.3 14.72 (10:50) 11.39 (10:50) 0.2 0.2 0 0 0
17-01-2018 -- (--) -- (--) -- -- (--) -- (--) -- 0 0 -- 0
16-01-2018 18.9 (14:50) 12.7 (00:30) 15.8 15.28 (00:40) 10.28 (12:30) 0 0 0 0 0
15-01-2018 17.5 (14:00) 12.1 (02:10) 14.8 16.67 (13:20) 11.39 (12:40) 0.6 0 0.6 0 0
14-01-2018 18 (12:20) 12.1 (00:00) 15.1 11.39 (14:50) 7.78 (14:50) 0 0 0 0 0
13-01-2018 18.3 (15:00) 13.1 (00:00) 15.7 8.61 (16:50) 6.11 (16:40) 0 0 0 0 0
12-01-2018 19.8 (15:00) 12.8 (00:00) 16.3 9.17 (16:50) 4.44 (18:20) 0 0 0 0 0
11-01-2018 18.4 (14:20) 14.1 (00:00) 16.3 9.17 (13:40) 6.39 (13:20) 0 0 0 0 0
10-01-2018 -- (--) -- (--) -- -- (--) -- (--) -- -- -- 0 --
09-01-2018 -- (--) -- (--) -- -- (--) -- (--) -- 0 -- 0 0
08-01-2018 -- (--) -- (--) -- -- (--) -- (--) -- 0.8 -- -- --
07-01-2018 16.8 (12:00) 12.9 (00:00) 14.8 17.78 (19:30) 11.94 (00:30) 1 0.2 0 0.8 0
06-01-2018 16.9 (12:00) 13.4 (00:00) 15.1 18.33 (21:10) 10.83 (09:30) 3 0.4 1 0 1.6
05-01-2018 23.3 (15:30) 9.2 (00:00) 16.2 15.28 (19:10) 10.83 (19:30) 0 0 0 0 0
04-01-2018 21.2 (14:20) 10.8 (07:50) 16 6.67 (11:40) 4.44 (12:10) 0 0 0 0 0
03-01-2018 -- (--) -- (--) -- -- (--) -- (--) -- 0 -- 0 0
02-01-2018 23.7 (15:20) 14.6 (00:00) 19.2 8.61 (13:20) 5.83 (13:50) 0 0 0 0 0
01-01-2018 22.7 (13:50) 14 (00:00) 18.4 11.67 (05:00) 7.78 (16:10) 0 0 0 0 0
31-12-2017 -- (--) -- (--) -- -- (--) -- (--) -- -- 0 0 0
30-12-2017 23.4 (15:00) 14.5 (00:00) 18.9 8.61 (15:10) 5.28 (14:20) 0 0 0 0 0
29-12-2017 -- (--) -- (--) -- -- (--) -- (--) -- 0 0 0 --
28-12-2017 19.6 (14:10) 13.6 (00:00) 16.6 11.67 (16:10) 8.61 (16:10) 0 0 0 0 0
27-12-2017 -- (--) -- (--) -- -- (--) -- (--) -- -- 0 0 0
26-12-2017 18.5 (13:10) 11.4 (00:00) 14.9 10 (12:10) 6.11 (11:30) 0 0 0 0 0
25-12-2017 18 (13:30) 11 (00:00) 14.5 10.83 (11:50) 7.5 (11:50) 0 0 0 0 0
24-12-2017 17.3 (12:40) 8.4 (00:00) 12.8 10.83 (11:30) 7.22 (11:30) 0 0 0 0 0
23-12-2017 18.5 (15:00) 8.7 (00:00) 13.6 7.22 (12:30) 4.72 (11:30) 0 0 0 0 0
22-12-2017 18.9 (14:10) 10.6 (00:00) 14.8 8.33 (12:40) 5.28 (14:00) 0 0 0 0 0
21-12-2017 19.2 (14:00) 10.5 (00:00) 14.9 8.33 (12:30) 5 (13:50) 0 0 0 0 0

Gráficas

Temp. máximas Temp. mínimas Temp. medias Precipitaciones Rachas de viento máximas Velocidades máximas media en intervalos de 10 minutos

Datos horarios

Fecha y hora oficial Temperatura (ºC) Velocidad del viento (km/h) Dirección del viento Racha (km/h) Dirección de racha Precipitación (mm) Presión (hPa) Tendencia (hPa) Humedad (%)
2018-01-19 23:00:00 14 13 Norte 26 Norte 0 -- -- 78
2018-01-19 22:00:00 14.6 21 Norte 32 Norte 0 -- -- 77
2018-01-19 21:00:00 14.7 18 Norte 33 Norte 0 -- -- 77
2018-01-19 20:00:00 14.4 21 Norte 36 Norte 0 -- -- 75
2018-01-19 19:00:00 15.2 26 Norte 39 Norte 0 -- -- 74
2018-01-19 18:00:00 16 32 Norte 43 Norte 0 -- -- 67
2018-01-19 17:00:00 17.3 31 Norte 44 Norte 0 -- -- 63
2018-01-19 16:00:00 17.5 32 Norte 44 Noroeste 0 -- -- 63
2018-01-19 15:00:00 18.5 32 Norte 49 Norte 0 -- -- 62
2018-01-19 14:00:00 18.6 32 Norte 44 Norte 0 -- -- 61
2018-01-19 13:00:00 19.3 32 Norte 46 Norte 0 -- -- 59
2018-01-19 12:00:00 18.6 30 Norte 45 Norte 0 -- -- 59
2018-01-19 11:00:00 18 23 Norte 41 Norte 0 -- -- 61
2018-01-19 10:00:00 15.8 23 Norte 36 Norte 0 -- -- 76
2018-01-19 09:00:00 15.4 21 Norte 31 Norte 0 -- -- 78
2018-01-19 08:00:00 14 14 Norte 33 Norte 0 -- -- 84
2018-01-19 07:00:00 14.7 22 Norte 36 Norte 0 -- -- 84
2018-01-19 06:00:00 14.3 7 Noroeste 24 Norte 0 -- -- 81
2018-01-19 05:00:00 14.6 17 Norte 34 Norte 0 -- -- 82
2018-01-19 04:00:00 14.9 19 Norte 41 Norte 0 -- -- 76
2018-01-19 03:00:00 14.9 30 Norte 45 Norte 0 -- -- 83
2018-01-19 02:00:00 15.2 21 Noroeste 38 Noroeste 0 -- -- 78
2018-01-19 01:00:00 15.2 22 Norte 36 Norte 0 -- -- 79
2018-01-19 00:00:00 14.8 21 Norte 36 Norte 0 -- -- 75
2018-01-18 23:00:00 15 28 Norte 41 Noroeste 0 -- -- 78
2018-01-18 22:00:00 14.6 24 Norte 45 Norte 0 -- -- 76
2018-01-18 21:00:00 15 25 Norte 40 Noroeste 0 -- -- 80
2018-01-18 20:00:00 14.8 23 Norte 44 Noroeste 0 -- -- 78
2018-01-18 19:00:00 15.2 22 Noroeste 43 Noroeste 0 -- -- 77
2018-01-18 18:00:00 15.4 28 Norte 49 Norte 0 -- -- 69
2018-01-18 17:00:00 16.2 33 Norte 49 Noroeste 0 -- -- 71
2018-01-18 16:00:00 16.5 34 Noroeste 49 Noroeste 0 -- -- 71
2018-01-18 15:00:00 17.2 35 Noroeste 49 Noroeste 0 -- -- 66
2018-01-18 14:00:00 16.9 35 Norte 47 Norte 0 -- -- 67
2018-01-18 13:00:00 17.2 26 Noroeste 42 Noroeste 0 -- -- 71
2018-01-18 12:00:00 16.5 29 Norte 39 Norte 0 -- -- 76
2018-01-18 11:00:00 15.6 37 Norte 53 Norte 0 -- -- 79
2018-01-18 10:00:00 16.4 24 Norte 34 Norte 0 -- -- 71
2018-01-18 09:00:00 13.8 18 Norte 27 Norte 0 -- -- 93
2018-01-18 08:00:00 13.5 11 Noroeste 30 Norte 0 -- -- 93
2018-01-18 07:00:00 13.8 18 Norte 32 Norte 0 -- -- 92
2018-01-18 06:00:00 13.1 14 Noroeste 27 Noroeste 0 -- -- 93
2018-01-18 05:00:00 13.1 21 Norte 42 Norte 0.2 -- -- 94
2018-01-18 04:00:00 13.8 19 Norte 37 Norte 0 -- -- 90
2018-01-18 03:00:00 14.1 17 Norte 37 Norte 0 -- -- 88
2018-01-18 02:00:00 14.3 16 Norte 26 Norte 0 -- -- 90
2018-01-18 01:00:00 14.5 17 Noroeste 28 Noroeste 0 -- -- 84
2018-01-18 00:00:00 13.7 10 Norte 18 Noroeste 0 -- -- 88
2018-01-17 23:00:00 13.5 13 Noroeste 26 Norte 0 -- -- 88
2018-01-17 22:00:00 14.1 18 Norte 34 Norte 0 -- -- 87
2018-01-17 21:00:00 14.6 27 Norte 46 Norte 0 -- -- 84
2018-01-17 20:00:00 14.7 36 Norte 45 Norte 0 -- -- 84
2018-01-17 19:00:00 15 31 Norte 48 Norte 0 -- -- 82
2018-01-17 18:00:00 15.7 30 Norte 50 Noroeste 0 -- -- 77
2018-01-17 17:00:00 -- -- -- -- -- -- -- -- --
2018-01-17 16:00:00 17.7 39 Noroeste 53 Noroeste 0 -- -- 71
2018-01-17 15:00:00 19.1 28 Norte 39 Norte 0 -- -- 67
2018-01-17 14:00:00 19.6 29 Norte 42 Noroeste 0 -- -- 66
2018-01-17 13:00:00 19.9 22 Norte 33 Norte 0 -- -- 63
2018-01-17 12:00:00 19.8 21 Noroeste 29 Noroeste 0 -- -- 58
2018-01-17 11:00:00 18.3 14 Norte 30 Norte 0 -- -- 65
2018-01-17 10:00:00 15.8 17 Noroeste 31 Noroeste 0 -- -- 87
2018-01-17 09:00:00 13.9 13 Noroeste 23 Noroeste 0 -- -- 94
2018-01-17 08:00:00 12.8 13 Norte 32 Norte 0 -- -- 92
2018-01-17 07:00:00 13.1 18 Norte 35 Noroeste 0 -- -- 92
2018-01-17 06:00:00 13.2 26 Noroeste 43 Noroeste 0 -- -- 93
2018-01-17 05:00:00 13.4 28 Norte 45 Noroeste 0 -- -- 92
2018-01-17 04:00:00 13.7 34 Norte 54 Noroeste 0 -- -- 91
2018-01-17 03:00:00 13.7 38 Noroeste 49 Noroeste 0 -- -- 90
2018-01-17 02:00:00 13.6 34 Noroeste 45 Noroeste 0 -- -- 88
2018-01-17 01:00:00 13.6 19 Noroeste 35 Norte 0 -- -- 83
2018-01-17 00:00:00 13.5 5 Nordeste 26 Noroeste 0 -- -- 81
2018-01-16 23:00:00 13.9 12 Norte 35 Noroeste 0 -- -- 78
2018-01-16 22:00:00 13.9 18 Norte 42 Norte 0 -- -- 79
2018-01-16 21:00:00 13.7 23 Norte 37 Noroeste 0 -- -- 81
2018-01-16 20:00:00 14.1 24 Norte 36 Noroeste 0 -- -- 81
2018-01-16 19:00:00 14.8 28 Noroeste 39 Noroeste 0 -- -- 75
2018-01-16 18:00:00 16.5 23 Norte 44 Norte 0 -- -- 60
2018-01-16 17:00:00 17.7 29 Norte 49 Norte 0 -- -- 52
2018-01-16 16:00:00 18.3 31 Nordeste 48 Nordeste 0 -- -- 53
2018-01-16 15:00:00 18.8 32 Norte 48 Norte 0 -- -- 51
2018-01-16 14:00:00 18.4 30 Norte 51 Norte 0 -- -- 56
2018-01-16 13:00:00 17.9 35 Nordeste 55 Nordeste 0 -- -- 56
2018-01-16 12:00:00 17.6 28 Nordeste 54 Nordeste 0 -- -- 59
2018-01-16 11:00:00 16.4 33 Norte 46 Norte 0 -- -- 59
2018-01-16 10:00:00 15.6 28 Norte 46 Norte 0 -- -- 60
2018-01-16 09:00:00 14.2 32 Norte 55 Norte 0 -- -- 63
2018-01-16 08:00:00 13.4 28 Norte 55 Norte 0 -- -- 64
2018-01-16 07:00:00 13.2 29 Norte 55 Norte 0 -- -- 65
2018-01-16 06:00:00 13.1 32 Norte 54 Norte 0 -- -- 65
2018-01-16 05:00:00 13 30 Norte 49 Norte 0 -- -- 63
2018-01-16 04:00:00 13.5 30 Norte 53 Norte 0 -- -- 62
2018-01-16 03:00:00 13.4 29 Norte 46 Norte 0 -- -- 57
2018-01-16 02:00:00 13.4 30 Norte 53 Norte 0 -- -- 61
2018-01-16 01:00:00 12.7 27 Norte 55 Norte 0 -- -- 61
2018-01-16 00:00:00 13.4 34 Norte 54 Norte 0 -- -- 54
2018-01-15 23:00:00 13.6 28 Norte 46 Norte 0 -- -- 58
2018-01-15 22:00:00 13.9 34 Norte 54 Norte 0 -- -- 61
2018-01-15 21:00:00 13.7 28 Norte 51 Norte 0 -- -- 72
2018-01-15 20:00:00 13.7 32 Norte 49 Norte 0 -- -- 68
2018-01-15 19:00:00 14 28 Norte 48 Norte 0 -- -- 63
2018-01-15 18:00:00 14.5 29 Norte 50 Norte 0 -- -- 58
2018-01-15 17:00:00 15.9 35 Norte 52 Norte 0 -- -- 61
2018-01-15 16:00:00 16.6 34 Norte 53 Norte 0 -- -- 54
2018-01-15 15:00:00 17 34 Norte 56 Norte 0 -- -- 53
2018-01-15 14:00:00 17.5 38 Norte 60 Norte 0 -- -- 58
2018-01-15 13:00:00 17 40 Norte 55 Norte 0 -- -- 62
2018-01-15 12:00:00 16.5 32 Norte 58 Norte 0 -- -- 73
2018-01-15 11:00:00 15.3 33 Norte 50 Norte 0 -- -- 81
2018-01-15 10:00:00 14.5 29 Norte 48 Noroeste 0.2 -- -- 91
2018-01-15 09:00:00 13.8 33 Noroeste 50 Noroeste 0.4 -- -- 87
2018-01-15 08:00:00 14.4 28 Noroeste 43 Noroeste 0 -- -- 82
2018-01-15 07:00:00 13.9 27 Norte 43 Noroeste 0 -- -- 81
2018-01-15 06:00:00 13.7 27 Noroeste 39 Norte 0 -- -- 75
2018-01-15 05:00:00 13.6 26 Norte 36 Norte 0 -- -- 74
2018-01-15 04:00:00 13.2 20 Norte 30 Noroeste 0 -- -- 79
2018-01-15 03:00:00 13 15 Norte 25 Norte 0 -- -- 83
2018-01-15 02:00:00 12.2 9 Norte 18 Noroeste 0 -- -- 84
2018-01-15 01:00:00 12.6 12 Norte 19 Noroeste 0 -- -- 84
2018-01-15 00:00:00 12.7 12 Norte 19 Noroeste 0 -- -- 82
2018-01-14 23:00:00 12.7 13 Noroeste 20 Noroeste 0 -- -- 80
2018-01-14 22:00:00 13.1 10 Norte 16 Norte 0 -- -- 78
2018-01-14 21:00:00 13.2 10 Norte 18 Noroeste 0 -- -- 76
2018-01-14 20:00:00 12.9 13 Noroeste 19 Norte 0 -- -- 74
2018-01-14 19:00:00 14.1 16 Norte 30 Norte 0 -- -- 68
2018-01-14 18:00:00 15.5 19 Norte 37 Norte 0 -- -- 62
2018-01-14 17:00:00 16.6 26 Norte 36 Norte 0 -- -- 60
2018-01-14 16:00:00 17.4 26 Norte 37 Norte 0 -- -- 55
2018-01-14 15:00:00 17.2 28 Norte 41 Norte 0 -- -- 56
2018-01-14 14:00:00 17.6 19 Nordeste 30 Norte 0 -- -- 61
2018-01-14 13:00:00 16.6 21 Nordeste 37 Este 0 -- -- 69
2018-01-14 12:00:00 17.6 17 Nordeste 34 Norte 0 -- -- 62
2018-01-14 11:00:00 17 18 Nordeste 30 Nordeste 0 -- -- 63
2018-01-14 10:00:00 15.8 18 Norte 29 Norte 0 -- -- 64
2018-01-14 09:00:00 13.8 10 Norte 15 Noroeste 0 -- -- 87
2018-01-14 08:00:00 12.4 14 Noroeste 23 Noroeste 0 -- -- 90
2018-01-14 07:00:00 13.2 14 Noroeste 25 Noroeste 0 -- -- 93
2018-01-14 06:00:00 14 13 Norte 24 Norte 0 -- -- 95
2018-01-14 05:00:00 13.9 11 Norte 20 Norte 0 -- -- 95
2018-01-14 04:00:00 14 9 Norte 13 Nordeste 0 -- -- 88
2018-01-14 03:00:00 13.7 4 Norte 13 Norte 0 -- -- 89
2018-01-14 02:00:00 14.4 10 Norte 17 Norte 0 -- -- 88
2018-01-14 01:00:00 14.9 13 Nordeste 26 Norte 0 -- -- 83
2018-01-14 00:00:00 15 15 Nordeste 30 Nordeste 0 -- -- 83
2018-01-13 23:00:00 15.2 18 Nordeste 31 Norte 0 -- -- 82
2018-01-13 22:00:00 15.3 17 Nordeste 26 Nordeste 0 -- -- 79
2018-01-13 21:00:00 15.3 18 Nordeste 27 Nordeste 0 -- -- 76
2018-01-13 20:00:00 15.1 18 Nordeste 30 Nordeste 0 -- -- 75
2018-01-13 19:00:00 14.7 15 Nordeste 28 Nordeste 0 -- -- 74
2018-01-13 18:00:00 15.3 16 Nordeste 28 Nordeste 0 -- -- 70
2018-01-13 17:00:00 16.3 20 Nordeste 31 Nordeste 0 -- -- 65
2018-01-13 16:00:00 17.2 17 Nordeste 26 Nordeste 0 -- -- 61
2018-01-13 15:00:00 18.3 13 Nordeste 30 Norte 0 -- -- 56
2018-01-13 14:00:00 18.2 12 Nordeste 29 Nordeste 0 -- -- 56
2018-01-13 13:00:00 17.6 14 Nordeste 28 Nordeste 0 -- -- 58
2018-01-13 12:00:00 16.1 13 Nordeste 23 Nordeste 0 -- -- 63
2018-01-13 11:00:00 15.3 14 Norte 23 Norte 0 -- -- 66
2018-01-13 10:00:00 14.7 12 Nordeste 22 Nordeste 0 -- -- 69
2018-01-13 09:00:00 14 13 Norte 18 Norte 0 -- -- 72
2018-01-13 08:00:00 13.8 12 Nordeste 18 Norte 0 -- -- 74
2018-01-13 07:00:00 13.8 7 Norte 12 Norte 0 -- -- 75
2018-01-13 06:00:00 13.8 7 Nordeste 22 Norte 0 -- -- 76
2018-01-13 05:00:00 13.8 14 Norte 27 Norte 0 -- -- 76
2018-01-13 04:00:00 13.8 13 Norte 26 Norte 0 -- -- 77
2018-01-13 03:00:00 13.7 11 Norte 21 Norte 0 -- -- 77
2018-01-13 02:00:00 13.8 13 Norte 21 Norte 0 -- -- 76
2018-01-13 01:00:00 13.4 6 Norte 10 Noroeste 0 -- -- 79
2018-01-13 00:00:00 13.8 6 Norte 17 Norte 0 -- -- 75
2018-01-12 23:00:00 14.5 11 Norte 20 Norte 0 -- -- 74
2018-01-12 22:00:00 15 13 Norte 24 Norte 0 -- -- 73
2018-01-12 21:00:00 15.2 11 Norte 19 Nordeste 0 -- -- 75
2018-01-12 20:00:00 15.3 13 Nordeste 23 Nordeste 0 -- -- 78
2018-01-12 19:00:00 15.6 15 Nordeste 23 Nordeste 0 -- -- 78
2018-01-12 18:00:00 16.1 14 Nordeste 21 Nordeste 0 -- -- 76
2018-01-12 17:00:00 17.5 12 Nordeste 33 Noroeste 0 -- -- 71
2018-01-12 16:00:00 18.5 12 Noroeste 24 Noroeste 0 -- -- 68
2018-01-12 15:00:00 19.8 14 Norte 26 Norte 0 -- -- 63
2018-01-12 14:00:00 19.7 11 Norte 23 Nordeste 0 -- -- 59
2018-01-12 13:00:00 18.7 11 Nordeste 21 Nordeste 0 -- -- 63
2018-01-12 12:00:00 17.8 14 Nordeste 23 Nordeste 0 -- -- 67
2018-01-12 11:00:00 16.8 15 Nordeste 26 Nordeste 0 -- -- 70
2018-01-12 10:00:00 15.5 14 Nordeste 24 Nordeste 0 -- -- 75
2018-01-12 09:00:00 14.4 10 Nordeste 18 Norte 0 -- -- 80
2018-01-12 08:00:00 13.1 8 Norte 14 Norte 0 -- -- 87
2018-01-12 07:00:00 13 4 Norte 13 Norte 0 -- -- 87
2018-01-12 06:00:00 13 7 Norte 14 Nordeste 0 -- -- 85
2018-01-12 05:00:00 13.8 11 Nordeste 20 Nordeste 0 -- -- 84
2018-01-12 04:00:00 13.3 10 Norte 17 Norte 0 -- -- 87
2018-01-12 03:00:00 13.3 9 Norte 19 Norte 0 -- -- 86
2018-01-12 02:00:00 13.7 10 Norte 23 Norte 0 -- -- 84
2018-01-12 01:00:00 14.1 11 Norte 24 Nordeste 0 -- -- 83
2018-01-12 00:00:00 14.3 13 Nordeste 26 Nordeste 0 -- -- 82
2018-01-11 23:00:00 14.3 11 Norte 28 Nordeste 0 -- -- 82
2018-01-11 22:00:00 14.4 14 Norte 28 Norte 0 -- -- 82
2018-01-11 21:00:00 14.3 14 Norte 29 Nordeste 0 -- -- 81
2018-01-11 20:00:00 14.5 14 Nordeste 28 Nordeste 0 -- -- 81
2018-01-11 19:00:00 14.9 15 Nordeste 31 Nordeste 0 -- -- 79
2018-01-11 18:00:00 15.8 19 Nordeste 30 Nordeste 0 -- -- 75
2018-01-11 17:00:00 16.8 21 Nordeste 33 Nordeste 0 -- -- 72
2018-01-11 16:00:00 18 21 Nordeste 33 Nordeste 0 -- -- 67
2018-01-11 15:00:00 18.4 22 Nordeste 32 Nordeste 0 -- -- 65
2018-01-11 14:00:00 18.2 21 Nordeste 33 Nordeste 0 -- -- 65
2018-01-11 13:00:00 18.1 19 Nordeste 32 Este 0 -- -- 65
2018-01-11 12:00:00 17.4 20 Nordeste 31 Este 0 -- -- 68
2018-01-11 11:00:00 16.5 18 Nordeste 32 Nordeste 0 -- -- 73
2018-01-11 10:00:00 16.7 13 Nordeste 26 Nordeste 0 -- -- 73
2018-01-11 09:00:00 15.2 9 Nordeste 22 Nordeste 0 -- -- 80
2018-01-11 08:00:00 14.6 9 Nordeste 19 Norte 0 -- -- 89
2018-01-11 07:00:00 14.7 17 Nordeste 27 Nordeste 0 -- -- 88
2018-01-11 06:00:00 15 8 Nordeste 22 Nordeste 0 -- -- 89
2018-01-11 05:00:00 15.2 12 Nordeste 22 Nordeste 0 -- -- 91
2018-01-11 04:00:00 15.2 15 Nordeste 25 Nordeste 0 -- -- 94
2018-01-11 03:00:00 15.7 11 Nordeste 21 Norte 0 -- -- 93
2018-01-11 02:00:00 15.8 12 Nordeste 21 Nordeste 0 -- -- 92
2018-01-11 01:00:00 16.2 7 Nordeste 14 Norte 0 -- -- 92
2018-01-11 00:00:00 16.1 8 Nordeste 18 Nordeste 0 -- -- 91
2018-01-10 23:00:00 15.9 11 Nordeste 18 Norte 0 -- -- 91
2018-01-10 22:00:00 14.7 4 Nordeste 9 Nordeste 0 -- -- 91
2018-01-10 21:00:00 15.6 5 Norte 12 Nordeste 0 -- -- 88
2018-01-10 20:00:00 16.3 7 Nordeste 29 Norte 0 -- -- 89
2018-01-10 19:00:00 -- -- -- -- -- -- -- -- --
2018-01-10 18:00:00 18 20 Norte 32 Norte 0 -- -- 80
2018-01-10 17:00:00 18.9 22 Norte 33 Noroeste 0 -- -- 72
2018-01-10 16:00:00 19.4 21 Noroeste 32 Noroeste 0 -- -- 75
2018-01-10 15:00:00 19.3 22 Noroeste 30 Noroeste 0 -- -- 75
2018-01-10 14:00:00 19.5 24 Noroeste 30 Noroeste 0 -- -- 78
2018-01-10 13:00:00 19.2 12 Noroeste 24 Noroeste 0 -- -- 80
2018-01-10 12:00:00 18.9 11 Norte 19 Noroeste 0 -- -- 79
2018-01-10 11:00:00 -- -- -- -- -- -- -- -- --
2018-01-10 10:00:00 17.2 10 Norte 19 Norte 0 -- -- 95
2018-01-10 09:00:00 16.8 9 Norte 17 Noroeste 0 -- -- 97
2018-01-10 08:00:00 15.7 10 Noroeste 16 Noroeste 0 -- -- 97
2018-01-10 07:00:00 15.9 11 Noroeste 18 Norte 0.2 -- -- 97
2018-01-10 06:00:00 15.9 12 Noroeste 27 Noroeste 0.8 -- -- 97
2018-01-10 05:00:00 -- -- -- -- -- -- -- -- --
2018-01-10 04:00:00 16.1 12 Noroeste 17 Noroeste 0 -- -- 95
2018-01-10 03:00:00 16.2 12 Noroeste 18 Noroeste 0 -- -- 95
2018-01-10 02:00:00 16.1 14 Noroeste 19 Noroeste 0 -- -- 95
2018-01-10 01:00:00 16.2 11 Noroeste 20 Noroeste 0 -- -- 94
2018-01-10 00:00:00 16.3 12 Noroeste 21 Noroeste 0 -- -- 94
2018-01-09 23:00:00 16.2 12 Noroeste 18 Noroeste 0 -- -- 94
2018-01-09 22:00:00 16.2 14 Noroeste 22 Noroeste 0 -- -- 93
2018-01-09 21:00:00 16.5 12 Noroeste 19 Noroeste 0 -- -- 90
2018-01-09 20:00:00 16.7 10 Noroeste 14 Noroeste 0 -- -- 85
2018-01-09 19:00:00 16.9 10 Noroeste 20 Noroeste 0 -- -- 82
2018-01-09 18:00:00 17.7 13 Norte 18 Norte 0 -- -- 79
2018-01-09 17:00:00 18.4 10 Norte 22 Noroeste 0 -- -- 74
2018-01-09 16:00:00 19.6 14 Noroeste 22 Noroeste 0 -- -- 69
2018-01-09 15:00:00 19.8 13 Norte 22 Norte 0 -- -- 67
2018-01-09 14:00:00 20.5 13 Noroeste 22 Norte 0 -- -- 65
2018-01-09 13:00:00 19.4 9 Norte 20 Noroeste 0 -- -- 68
2018-01-09 12:00:00 18.7 12 Norte 23 Noroeste 0 -- -- 70
2018-01-09 11:00:00 17.6 17 Noroeste 25 Noroeste 0 -- -- 73
2018-01-09 10:00:00 16 16 Noroeste 22 Noroeste 0 -- -- 80
2018-01-09 09:00:00 12.1 3 Norte 7 Noroeste 0 -- -- 91
2018-01-09 08:00:00 -- -- -- -- -- -- -- -- --
2018-01-09 07:00:00 10.6 3 Nordeste 9 Noroeste 0 -- -- 93
2018-01-09 06:00:00 9.6 5 Noroeste 8 Noroeste 0 -- -- 92
2018-01-09 05:00:00 10.3 5 Noroeste 9 Noroeste 0 -- -- 90
2018-01-09 04:00:00 10.2 4 Noroeste 6 Oeste 0 -- -- 91
2018-01-09 03:00:00 10.1 4 Noroeste 6 Noroeste 0 -- -- 91
2018-01-09 02:00:00 9.8 5 Noroeste 8 Noroeste 0 -- -- 90
2018-01-09 01:00:00 10.3 4 Noroeste 8 Noroeste 0 -- -- 89
2018-01-09 00:00:00 10.7 4 Noroeste 5 Noroeste 0 -- -- 89
2018-01-08 23:00:00 11.4 3 Noroeste 5 Noroeste 0 -- -- 89
2018-01-08 22:00:00 10.8 3 Norte 9 Noroeste 0 -- -- 87
2018-01-08 21:00:00 -- -- -- -- -- -- -- -- --
2018-01-08 20:00:00 12.5 8 Noroeste 13 Noroeste 0 -- -- 80
2018-01-08 19:00:00 13.7 9 Noroeste 21 Noroeste 0 -- -- 76
2018-01-08 18:00:00 15.1 16 Norte 22 Noroeste 0 -- -- 73
2018-01-08 17:00:00 15.7 12 Noroeste 29 Noroeste 0 -- -- 68
2018-01-08 16:00:00 17.4 19 Noroeste 35 Noroeste 0 -- -- 59
2018-01-08 15:00:00 -- -- -- -- -- -- -- -- --
2018-01-08 14:00:00 17.4 22 Noroeste 33 Noroeste 0 -- -- 63
2018-01-08 13:00:00 17.8 21 Noroeste 32 Noroeste 0 -- -- 60
2018-01-08 12:00:00 16.6 21 Norte 36 Noroeste 0 -- -- 65
2018-01-08 11:00:00 -- -- -- -- -- -- -- -- --
2018-01-08 10:00:00 15.8 22 Norte 33 Noroeste 0 -- -- 71
2018-01-08 09:00:00 13.9 13 Norte 28 Norte 0 -- -- 85
2018-01-08 08:00:00 13.5 17 Noroeste 29 Norte 0 -- -- 85
2018-01-08 07:00:00 13.7 20 Noroeste 42 Noroeste 0 -- -- 79
2018-01-08 06:00:00 13.5 23 Noroeste 45 Noroeste 0 -- -- 83
2018-01-08 05:00:00 13.1 17 Noroeste 27 Noroeste 0 -- -- 86
2018-01-08 04:00:00 13.5 23 Noroeste 35 Noroeste 0 -- -- 81
2018-01-08 03:00:00 13.3 27 Noroeste 46 Noroeste 0 -- -- 81
2018-01-08 02:00:00 13.9 30 Noroeste 46 Noroeste 0 -- -- 79
2018-01-08 01:00:00 13.1 26 Noroeste 61 Noroeste 0.8 -- -- 87
2018-01-08 00:00:00 14.3 32 Noroeste 54 Noroeste 0 -- -- 74
2018-01-07 23:00:00 14.6 33 Noroeste 51 Noroeste 0 -- -- 74
2018-01-07 22:00:00 14.5 35 Noroeste 55 Noroeste 0 -- -- 71
2018-01-07 21:00:00 14.2 34 Noroeste 52 Noroeste 0 -- -- 74
2018-01-07 20:00:00 14.1 33 Noroeste 64 Noroeste 0 -- -- 79
2018-01-07 19:00:00 14.3 39 Noroeste 52 Noroeste 0 -- -- 73
2018-01-07 18:00:00 14.2 32 Noroeste 50 Noroeste 0 -- -- 72
2018-01-07 17:00:00 13.6 30 Noroeste 55 Noroeste 0.8 -- -- 86
2018-01-07 16:00:00 16.3 35 Noroeste 51 Noroeste 0 -- -- 64
2018-01-07 15:00:00 16.3 30 Noroeste 49 Noroeste 0 -- -- 66
2018-01-07 14:00:00 16.4 33 Noroeste 51 Noroeste 0 -- -- 65
2018-01-07 13:00:00 16.7 35 Noroeste 54 Noroeste 0 -- -- 63
2018-01-07 12:00:00 16.8 34 Noroeste 49 Noroeste 0 -- -- 58
2018-01-07 11:00:00 16.1 30 Noroeste 45 Noroeste 0 -- -- 59
2018-01-07 10:00:00 15.6 19 Norte 42 Noroeste 0 -- -- 69
2018-01-07 09:00:00 13.6 24 Norte 38 Norte 0 -- -- 76
2018-01-07 08:00:00 13.2 23 Noroeste 35 Noroeste 0 -- -- 74
2018-01-07 07:00:00 13.3 23 Norte 39 Norte 0 -- -- 70
2018-01-07 06:00:00 13.7 29 Norte 47 Noroeste 0 -- -- 74
2018-01-07 05:00:00 13.4 26 Noroeste 54 Noroeste 0 -- -- 79
2018-01-07 04:00:00 13.8 36 Noroeste 54 Noroeste 0 -- -- 71
2018-01-07 03:00:00 13.8 40 Noroeste 53 Noroeste 0.2 -- -- 75
2018-01-07 02:00:00 13.7 31 Noroeste 56 Norte 0 -- -- 71
2018-01-07 01:00:00 14.1 39 Noroeste 58 Noroeste 0 -- -- 71
2018-01-07 00:00:00 14.3 34 Noroeste 55 Noroeste 0 -- -- 74
2018-01-06 23:00:00 14 37 Noroeste 52 Noroeste 0.2 -- -- 83
2018-01-06 22:00:00 13.8 32 Noroeste 66 Noroeste 0.2 -- -- 86
2018-01-06 21:00:00 14.5 37 Noroeste 56 Noroeste 0 -- -- 83
2018-01-06 20:00:00 13.8 31 Noroeste 55 Noroeste 0.2 -- -- 87
2018-01-06 19:00:00 13.7 29 Noroeste 48 Noroeste 1 -- -- 89
2018-01-06 18:00:00 14.9 28 Oeste 47 Oeste 0 -- -- 80
2018-01-06 17:00:00 15.1 28 Noroeste 41 Noroeste 0 -- -- 78
2018-01-06 16:00:00 16 26 Noroeste 48 Noroeste 0 -- -- 74
2018-01-06 15:00:00 16 31 Noroeste 48 Noroeste 0 -- -- 72
2018-01-06 14:00:00 16.3 32 Noroeste 48 Noroeste 0 -- -- 74
2018-01-06 13:00:00 16.6 33 Noroeste 51 Noroeste 0 -- -- 70
2018-01-06 12:00:00 16.9 27 Noroeste 52 Noroeste 0 -- -- 74
2018-01-06 11:00:00 16.3 33 Noroeste 52 Noroeste 0.2 -- -- 78
2018-01-06 10:00:00 15.7 34 Noroeste 59 Noroeste 0 -- -- 74
2018-01-06 09:00:00 14.9 34 Noroeste 50 Noroeste 0.6 -- -- 80
2018-01-06 08:00:00 14.4 24 Noroeste 48 Noroeste 0.2 -- -- 87
2018-01-06 07:00:00 14.7 30 Noroeste 49 Noroeste 0 -- -- 80
2018-01-06 06:00:00 15.2 24 Noroeste 42 Noroeste 0 -- -- 78
2018-01-06 05:00:00 15.3 23 Noroeste 46 Noroeste 0 -- -- 78
2018-01-06 04:00:00 15.6 24 Noroeste 42 Noroeste 0.2 -- -- 86
2018-01-06 03:00:00 15.1 21 Noroeste 56 Noroeste 0 -- -- 88
2018-01-06 02:00:00 15.7 31 Noroeste 55 Oeste 0.2 -- -- 87
2018-01-06 01:00:00 16.2 32 Oeste 54 Noroeste 0 -- -- 83
2018-01-06 00:00:00 16 36 Oeste 53 Oeste 0 -- -- 79
2018-01-05 23:00:00 15.8 34 Oeste 51 Oeste 0 -- -- 75
2018-01-05 22:00:00 15.9 31 Noroeste 50 Oeste 0 -- -- 77
2018-01-05 21:00:00 15.6 35 Oeste 53 Oeste 0 -- -- 79
2018-01-05 20:00:00 15.5 36 Oeste 55 Oeste 0 -- -- 80
2018-01-05 19:00:00 16 28 Oeste 42 Oeste 0 -- -- 71
2018-01-05 18:00:00 16.1 17 Noroeste 33 Norte 0 -- -- 74
2018-01-05 17:00:00 20.1 16 Noroeste 23 Oeste 0 -- -- 57
2018-01-05 16:00:00 23 15 Sudoeste 24 Sudoeste 0 -- -- 25
2018-01-05 15:00:00 22.9 7 Sur 27 Sudeste 0 -- -- 54
2018-01-05 14:00:00 22.1 13 Sudeste 25 Sudeste 0 -- -- 56
2018-01-05 13:00:00 20.6 7 Este 25 Norte 0 -- -- 57
2018-01-05 12:00:00 19.8 9 Noroeste 34 Noroeste 0 -- -- 61
2018-01-05 11:00:00 17.1 8 Norte 25 Norte 0 -- -- 86
2018-01-05 10:00:00 14.8 5 Este 8 Este 0 -- -- 95
2018-01-05 09:00:00 12.1 2 Oeste 5 Noroeste 0 -- -- 99
2018-01-05 08:00:00 10.3 3 Oeste 6 Noroeste 0 -- -- 96
2018-01-05 07:00:00 9.2 6 Oeste 9 Oeste 0 -- -- 96
2018-01-05 06:00:00 10.1 0 Calma 8 Oeste 0 -- -- 94
2018-01-05 05:00:00 11.1 4 Noroeste 8 Oeste 0 -- -- 96
2018-01-05 04:00:00 11.2 6 Noroeste 10 Noroeste 0 -- -- 97
2018-01-05 03:00:00 11.5 4 Noroeste 13 Noroeste 0 -- -- 96
2018-01-05 02:00:00 10.7 6 Noroeste 9 Noroeste 0 -- -- 95
2018-01-05 01:00:00 12.1 4 Noroeste 10 Noroeste 0 -- -- 94
2018-01-05 00:00:00 12.2 7 Noroeste 12 Noroeste 0 -- -- 93
2018-01-04 23:00:00 12 7 Noroeste 10 Noroeste 0 -- -- 90
2018-01-04 22:00:00 12.7 5 Norte 12 Noroeste 0 -- -- 90
2018-01-04 21:00:00 12.9 8 Noroeste 12 Noroeste 0 -- -- 85
2018-01-04 20:00:00 14 3 Norte 11 Noroeste 0 -- -- 76
2018-01-04 19:00:00 15.3 5 Noroeste 9 Este 0 -- -- 81
2018-01-04 18:00:00 18.1 7 Este 12 Este 0 -- -- 74
2018-01-04 17:00:00 20.3 9 Este 14 Este 0 -- -- 64
2018-01-04 16:00:00 20.8 10 Este 18 Este 0 -- -- 56
2018-01-04 15:00:00 21.1 12 Este 20 Sudeste 0 -- -- 51
2018-01-04 14:00:00 20.9 12 Este 22 Este 0 -- -- 55
2018-01-04 13:00:00 20.3 15 Este 23 Este 0 -- -- 65
2018-01-04 12:00:00 20 14 Este 24 Este 0 -- -- 69
2018-01-04 11:00:00 18.8 9 Este 14 Sudeste 0 -- -- 73
2018-01-04 10:00:00 16.9 3 Este 9 Este 0 -- -- 86
2018-01-04 09:00:00 14.2 4 Sudoeste 9 Noroeste 0 -- -- 96
2018-01-04 08:00:00 11 5 Noroeste 8 Sudoeste 0 -- -- 95
2018-01-04 07:00:00 13.3 4 Sudoeste 10 Sudoeste 0 -- -- 93
2018-01-04 06:00:00 13.4 4 Sudoeste 8 Sudoeste 0 -- -- 93
2018-01-04 05:00:00 13.5 4 Oeste 8 Oeste 0 -- -- 92
2018-01-04 04:00:00 12.9 4 Oeste 9 Oeste 0 -- -- 92
2018-01-04 03:00:00 12.6 4 Oeste 9 Norte 0 -- -- 89
2018-01-04 02:00:00 13.2 9 Oeste 12 Oeste 0 -- -- 86
2018-01-04 01:00:00 15.2 6 Nordeste 21 Norte 0 -- -- 72
2018-01-04 00:00:00 16.9 6 Norte 13 Nordeste 0 -- -- 45
2018-01-03 23:00:00 16.2 6 Norte 15 Norte 0 -- -- 52
2018-01-03 22:00:00 15.5 10 Noroeste 17 Noroeste 0 -- -- 74
2018-01-03 21:00:00 15.8 11 Noroeste 21 Noroeste 0 -- -- 76
2018-01-03 20:00:00 16.3 11 Noroeste 20 Norte 0 -- -- 70
2018-01-03 19:00:00 17 10 Norte 15 Norte 0 -- -- 71
2018-01-03 18:00:00 18.6 8 Norte 14 Norte 0 -- -- 57
2018-01-03 17:00:00 20.9 9 Nordeste 17 Este 0 -- -- 51
2018-01-03 16:00:00 22 12 Este 23 Este 0 -- -- 41
2018-01-03 15:00:00 22.5 12 Este 20 Este 0 -- -- 42
2018-01-03 14:00:00 22.5 12 Este 21 Este 0 -- -- 44
2018-01-03 13:00:00 21.6 12 Este 20 Este 0 -- -- 55
2018-01-03 12:00:00 21.5 9 Sudeste 16 Este 0 -- -- 54
2018-01-03 11:00:00 19.5 7 Este 13 Este 0 -- -- 74
2018-01-03 10:00:00 17.5 5 Este 15 Noroeste 0 -- -- 84
2018-01-03 09:00:00 15.3 11 Noroeste 17 Noroeste 0 -- -- 94
2018-01-03 08:00:00 12.7 10 Noroeste 17 Noroeste 0 -- -- 95
2018-01-03 07:00:00 -- -- -- -- -- -- -- -- --
2018-01-03 06:00:00 11.7 9 Noroeste 12 Noroeste 0 -- -- 92
2018-01-03 05:00:00 11.8 4 Noroeste 9 Oeste 0 -- -- 88
2018-01-03 04:00:00 12.7 5 Noroeste 14 Nordeste 0 -- -- 85
2018-01-03 03:00:00 14.9 13 Nordeste 21 Nordeste 0 -- -- 87
2018-01-03 02:00:00 14.1 8 Noroeste 23 Nordeste 0 -- -- 89
2018-01-03 01:00:00 14.2 3 Norte 20 Noroeste 0 -- -- 86
2018-01-03 00:00:00 14.8 14 Noroeste 21 Noroeste 0 -- -- 88
2018-01-02 23:00:00 15.9 9 Oeste 15 Noroeste 0 -- -- 68
2018-01-02 22:00:00 15 7 Noroeste 15 Noroeste 0 -- -- 65
2018-01-02 21:00:00 15.8 12 Noroeste 18 Noroeste 0 -- -- 76
2018-01-02 20:00:00 15.9 11 Oeste 21 Norte 0 -- -- 81
2018-01-02 19:00:00 16.9 14 Norte 20 Norte 0 -- -- 82
2018-01-02 18:00:00 19.1 9 Norte 22 Este 0 -- -- 57
2018-01-02 17:00:00 21.7 12 Este 25 Sudeste 0 -- -- 32
2018-01-02 16:00:00 23.3 17 Este 30 Sudeste 0 -- -- 28
2018-01-02 15:00:00 23.5 18 Este 26 Sudeste 0 -- -- 31
2018-01-02 14:00:00 23.3 18 Este 31 Este 0 -- -- 44
2018-01-02 13:00:00 22.9 17 Este 28 Este 0 -- -- 47
2018-01-02 12:00:00 21.1 17 Este 26 Este 0 -- -- 61
2018-01-02 11:00:00 19.9 14 Sudeste 23 Sudeste 0 -- -- 72
2018-01-02 10:00:00 18 8 Sudeste 17 Este 0 -- -- 83
2018-01-02 09:00:00 15.9 0 Calma 6 Este 0 -- -- 93
2018-01-02 08:00:00 14.7 3 Norte 8 Nordeste 0 -- -- 93
2018-01-02 07:00:00 15 2 Nordeste 16 Nordeste 0 -- -- 92
2018-01-02 06:00:00 15.3 8 Nordeste 25 Nordeste 0 -- -- 92
2018-01-02 05:00:00 15.3 4 Nordeste 17 Norte 0 -- -- 92
2018-01-02 04:00:00 15.2 3 Este 19 Norte 0 -- -- 92
2018-01-02 03:00:00 15.4 12 Norte 26 Nordeste 0 -- -- 91
2018-01-02 02:00:00 15.6 8 Norte 17 Norte 0 -- -- 91
2018-01-02 01:00:00 15.7 7 Nordeste 26 Nordeste 0 -- -- 92
2018-01-02 00:00:00 15.6 10 Norte 23 Nordeste 0 -- -- 92
2018-01-01 23:00:00 15.7 9 Nordeste 22 Nordeste 0 -- -- 93
2018-01-01 22:00:00 15.4 3 Norte 15 Oeste 0 -- -- 92
2018-01-01 21:00:00 15.7 9 Noroeste 23 Nordeste 0 -- -- 91
2018-01-01 20:00:00 16.1 15 Nordeste 21 Nordeste 0 -- -- 90
2018-01-01 19:00:00 16.5 12 Nordeste 30 Nordeste 0 -- -- 87
2018-01-01 18:00:00 16.9 15 Nordeste 36 Nordeste 0 -- -- 84
2018-01-01 17:00:00 17.8 26 Nordeste 37 Nordeste 0 -- -- 77
2018-01-01 16:00:00 19.8 27 Nordeste 39 Nordeste 0 -- -- 65
2018-01-01 15:00:00 21.3 22 Nordeste 36 Norte 0 -- -- 57
2018-01-01 14:00:00 22.5 26 Norte 37 Norte 0 -- -- 56
2018-01-01 13:00:00 21.2 22 Nordeste 36 Norte 0 -- -- 48
2018-01-01 12:00:00 20.1 22 Nordeste 38 Nordeste 0 -- -- 58
2018-01-01 11:00:00 18.5 18 Nordeste 31 Nordeste 0 -- -- 73
2018-01-01 10:00:00 17.4 8 Nordeste 29 Nordeste 0 -- -- 82
2018-01-01 09:00:00 15.8 7 Nordeste 15 Este 0 -- -- 86
2018-01-01 08:00:00 14.1 4 Noroeste 22 Norte 0 -- -- 88
2018-01-01 07:00:00 14.4 14 Norte 29 Nordeste 0 -- -- 89
2018-01-01 06:00:00 14.9 21 Nordeste 38 Nordeste 0 -- -- 91
2018-01-01 05:00:00 15 27 Nordeste 42 Nordeste 0 -- -- 89
2018-01-01 04:00:00 15.2 22 Nordeste 38 Nordeste 0 -- -- 89
2018-01-01 03:00:00 15 3 Este 16 Este 0 -- -- 89
2018-01-01 02:00:00 15.1 9 Este 25 Nordeste 0 -- -- 90
2018-01-01 01:00:00 15.4 10 Nordeste 22 Nordeste 0 -- -- 89
2018-01-01 00:00:00 15.8 3 Nordeste 15 Norte 0 -- -- 79
2017-12-31 23:00:00 16.3 13 Nordeste 26 Este 0 -- -- 72
2017-12-31 22:00:00 17.3 22 Nordeste 40 Nordeste 0 -- -- 55
2017-12-31 21:00:00 16.8 18 Norte 35 Nordeste 0 -- -- 61
2017-12-31 20:00:00 17.2 22 Nordeste 31 Norte 0 -- -- 64
2017-12-31 19:00:00 17.4 3 Oeste 17 Noroeste 0 -- -- 69
2017-12-31 18:00:00 18.6 9 Norte 21 Norte 0 -- -- 62
2017-12-31 17:00:00 20.4 16 Nordeste 26 Nordeste 0 -- -- 53
2017-12-31 16:00:00 21.9 13 Nordeste 25 Este 0 -- -- 44
2017-12-31 15:00:00 21.9 14 Este 21 Este 0 -- -- 43
2017-12-31 14:00:00 23.1 9 Este 26 Este 0 -- -- 33
2017-12-31 13:00:00 24.2 15 Este 26 Este 0 -- -- 31
2017-12-31 12:00:00 22.7 12 Este 21 Este 0 -- -- 36
2017-12-31 11:00:00 22.5 6 Este 13 Este 0 -- -- 40
2017-12-31 10:00:00 20.2 4 Sudeste 8 Este 0 -- -- 46
2017-12-31 09:00:00 17.1 4 Sudoeste 7 Sudoeste 0 -- -- 60
2017-12-31 08:00:00 15.2 3 Sur 6 Sur 0 -- -- 48
2017-12-31 07:00:00 14.6 6 Noroeste 12 Noroeste 0 -- -- 45
2017-12-31 06:00:00 -- -- -- -- -- -- -- -- --
2017-12-31 05:00:00 14.4 8 Noroeste 10 Noroeste 0 -- -- 36
2017-12-31 04:00:00 14.7 4 Oeste 8 Noroeste 0 -- -- 37
2017-12-31 03:00:00 16.2 2 Sur 5 Sudoeste 0 -- -- 36
2017-12-31 02:00:00 17 6 Sudoeste 8 Sudoeste 0 -- -- 31
2017-12-31 01:00:00 16.6 0 Calma 3 Oeste 0 -- -- 29
2017-12-31 00:00:00 15.4 0 Calma 4 Noroeste 0 -- -- 41